createdAt,value
2018-11-09T00:00:51.184Z,1016.15
2018-11-09T00:01:51.216Z,1016.17
2018-11-09T00:02:51.219Z,1016.16
2018-11-09T00:03:51.244Z,1016.17
2018-11-09T00:04:51.259Z,1016.22
2018-11-09T00:05:51.280Z,1016.25
2018-11-09T00:06:51.296Z,1016.2
2018-11-09T00:07:51.318Z,1016.21
2018-11-09T00:08:51.336Z,1016.2
2018-11-09T00:09:51.356Z,1016.23
2018-11-09T00:10:51.374Z,1016.18
2018-11-09T00:11:51.393Z,1016.22
2018-11-09T00:12:51.411Z,1016.23
2018-11-09T00:13:51.425Z,1016.23
2018-11-09T00:15:51.471Z,1016.21
2018-11-09T00:16:51.481Z,1016.19
2018-11-09T00:17:51.504Z,1016.23
2018-11-09T00:18:51.519Z,1016.24
2018-11-09T00:19:51.537Z,1016.22
2018-11-09T00:20:51.560Z,1016.24
2018-11-09T00:21:51.577Z,1016.21
2018-11-09T00:22:51.593Z,1016.21
2018-11-09T00:23:51.697Z,1016.13
2018-11-09T00:24:51.629Z,1016.14
2018-11-09T00:25:51.653Z,1016.14
2018-11-09T00:26:51.667Z,1016.12
2018-11-09T00:27:51.739Z,1016.15
2018-11-09T00:28:51.707Z,1016.07
2018-11-09T00:29:51.722Z,1016.07
2018-11-09T00:31:51.758Z,1016.09
2018-11-09T00:32:51.775Z,1016.08
2018-11-09T00:33:51.794Z,1016.13
2018-11-09T00:34:51.819Z,1016.11
2018-11-09T00:35:51.837Z,1016.11
2018-11-09T00:36:51.851Z,1016.12
2018-11-09T00:37:51.873Z,1016.13
2018-11-09T00:38:51.887Z,1016.09
2018-11-09T00:39:51.908Z,1016.11
2018-11-09T00:40:51.925Z,1016.15
2018-11-09T00:41:52.032Z,1016.14
2018-11-09T00:42:51.965Z,1016.1
2018-11-09T00:43:51.979Z,1016.16
2018-11-09T00:44:52.002Z,1016.1
2018-11-09T00:45:52.020Z,1016.17
2018-11-09T00:47:52.057Z,1016.15
2018-11-09T00:48:52.071Z,1016.11
2018-11-09T00:49:52.089Z,1016.1
2018-11-09T00:50:52.111Z,1016.06
2018-11-09T00:51:52.130Z,1016
2018-11-09T00:52:52.147Z,1016
2018-11-09T00:53:52.163Z,1015.99
2018-11-09T00:54:52.185Z,1015.97
2018-11-09T00:55:52.205Z,1015.92
2018-11-09T00:56:52.220Z,1015.91
2018-11-09T00:57:52.235Z,1015.88
2018-11-09T00:58:52.261Z,1015.9
2018-11-09T00:59:52.276Z,1015.84
2018-11-09T01:00:52.294Z,1015.84
2018-11-09T01:02:52.326Z,1015.78
2018-11-09T01:03:52.348Z,1015.76
2018-11-09T01:04:52.362Z,1015.81
2018-11-09T01:05:52.415Z,1015.8
2018-11-09T01:06:52.403Z,1015.81
2018-11-09T01:07:52.422Z,1015.8
2018-11-09T01:08:52.442Z,1015.8
2018-11-09T01:09:52.454Z,1015.77
2018-11-09T01:10:52.475Z,1015.75
2018-11-09T01:11:52.494Z,1015.77
2018-11-09T01:12:52.508Z,1015.8
2018-11-09T01:13:52.530Z,1015.8
2018-11-09T01:14:52.544Z,1015.84
2018-11-09T01:15:52.566Z,1015.81
2018-11-09T01:16:52.581Z,1015.83
2018-11-09T01:17:52.606Z,1015.81
2018-11-09T01:18:52.617Z,1015.79
2018-11-09T01:19:52.636Z,1015.79
2018-11-09T01:20:52.658Z,1015.74
2018-11-09T01:21:52.670Z,1015.72
2018-11-09T01:22:52.700Z,1015.69
2018-11-09T01:23:52.707Z,1015.7
2018-11-09T01:24:52.734Z,1015.71
2018-11-09T01:25:52.746Z,1015.74
2018-11-09T01:26:52.765Z,1015.66
2018-11-09T01:27:52.779Z,1015.69
2018-11-09T01:28:52.803Z,1015.66
2018-11-09T01:29:52.821Z,1015.69
2018-11-09T01:30:52.841Z,1015.65
2018-11-09T01:31:52.855Z,1015.68
2018-11-09T01:32:52.874Z,1015.7
2018-11-09T01:34:52.910Z,1015.68
2018-11-09T01:35:52.929Z,1015.7
2018-11-09T01:36:52.948Z,1015.67
2018-11-09T01:37:52.964Z,1015.73
2018-11-09T01:38:52.983Z,1015.68
2018-11-09T01:39:53.003Z,1015.68
2018-11-09T01:40:53.020Z,1015.65
2018-11-09T01:41:53.040Z,1015.66
2018-11-09T01:42:53.056Z,1015.69
2018-11-09T01:43:53.073Z,1015.67
2018-11-09T01:44:53.091Z,1015.64
2018-11-09T01:45:53.110Z,1015.68
2018-11-09T01:46:53.128Z,1015.65
2018-11-09T01:47:53.146Z,1015.63
2018-11-09T01:48:53.165Z,1015.64
2018-11-09T01:50:53.202Z,1015.62
2018-11-09T01:51:53.219Z,1015.55
2018-11-09T01:52:53.244Z,1015.57
2018-11-09T01:53:53.255Z,1015.57
2018-11-09T01:54:53.274Z,1015.51
2018-11-09T01:55:53.291Z,1015.54
2018-11-09T01:56:53.310Z,1015.52
2018-11-09T01:57:53.329Z,1015.51
2018-11-09T01:58:53.345Z,1015.47
2018-11-09T01:59:53.365Z,1015.5
2018-11-09T02:00:53.383Z,1015.5
2018-11-09T02:01:53.452Z,1015.48
2018-11-09T02:02:53.419Z,1015.43
2018-11-09T02:03:53.437Z,1015.44
2018-11-09T02:04:53.458Z,1015.45
2018-11-09T02:06:53.492Z,1015.42
2018-11-09T02:07:53.510Z,1015.36
2018-11-09T02:08:53.529Z,1015.34
2018-11-09T02:09:53.585Z,1015.31
2018-11-09T02:10:53.564Z,1015.36
2018-11-09T02:11:53.583Z,1015.34
2018-11-09T02:12:53.601Z,1015.36
2018-11-09T02:13:53.620Z,1015.33
2018-11-09T02:14:53.637Z,1015.32
2018-11-09T02:15:53.655Z,1015.37
2018-11-09T02:16:53.673Z,1015.36
2018-11-09T02:17:53.692Z,1015.41
2018-11-09T02:18:53.750Z,1015.41
2018-11-09T02:19:53.728Z,1015.4
2018-11-09T02:20:53.746Z,1015.36
2018-11-09T02:22:53.783Z,1015.32
2018-11-09T02:23:53.801Z,1015.32
2018-11-09T02:24:53.819Z,1015.31
2018-11-09T02:25:53.837Z,1015.34
2018-11-09T02:26:53.856Z,1015.31
2018-11-09T02:27:53.873Z,1015.32
2018-11-09T02:28:53.891Z,1015.27
2018-11-09T02:29:53.909Z,1015.32
2018-11-09T02:30:53.929Z,1015.33
2018-11-09T02:31:53.945Z,1015.31
2018-11-09T02:32:53.965Z,1015.3
2018-11-09T02:33:53.983Z,1015.31
2018-11-09T02:34:54.001Z,1015.28
2018-11-09T02:35:54.019Z,1015.25
2018-11-09T02:37:54.057Z,1015.31
2018-11-09T02:38:54.074Z,1015.27
2018-11-09T02:39:54.092Z,1015.28
2018-11-09T02:40:54.106Z,1015.29
2018-11-09T02:41:54.126Z,1015.27
2018-11-09T02:42:54.148Z,1015.27
2018-11-09T02:43:54.166Z,1015.25
2018-11-09T02:44:54.184Z,1015.25
2018-11-09T02:45:54.198Z,1015.26
2018-11-09T02:46:54.220Z,1015.22
2018-11-09T02:47:54.234Z,1015.26
2018-11-09T02:48:54.257Z,1015.32
2018-11-09T02:49:54.272Z,1015.28
2018-11-09T02:50:54.310Z,1015.28
2018-11-09T02:51:54.312Z,1015.3
2018-11-09T02:52:54.330Z,1015.32
2018-11-09T02:53:54.344Z,1015.3
2018-11-09T02:54:54.363Z,1015.29
2018-11-09T02:55:54.386Z,1015.31
2018-11-09T02:56:54.402Z,1015.28
2018-11-09T02:57:54.422Z,1015.3
2018-11-09T02:58:54.436Z,1015.3
2018-11-09T02:59:54.458Z,1015.28
2018-11-09T03:00:54.476Z,1015.27
2018-11-09T03:01:54.490Z,1015.31
2018-11-09T03:02:54.512Z,1015.26
2018-11-09T03:03:54.559Z,1015.26
2018-11-09T03:04:54.549Z,1015.29
2018-11-09T03:05:54.563Z,1015.31
2018-11-09T03:06:54.585Z,1015.36
2018-11-09T03:07:54.603Z,1015.31
2018-11-09T03:09:54.639Z,1015.3
2018-11-09T03:10:54.653Z,1015.32
2018-11-09T03:11:54.676Z,1015.31
2018-11-09T03:12:54.691Z,1015.35
2018-11-09T03:13:54.713Z,1015.35
2018-11-09T03:14:54.732Z,1015.36
2018-11-09T03:15:54.745Z,1015.38
2018-11-09T03:16:54.763Z,1015.34
2018-11-09T03:17:54.784Z,1015.4
2018-11-09T03:18:54.805Z,1015.4
2018-11-09T03:19:54.817Z,1015.37
2018-11-09T03:20:54.840Z,1015.39
2018-11-09T03:21:54.859Z,1015.37
2018-11-09T03:22:54.876Z,1015.33
2018-11-09T03:23:54.889Z,1015.34
2018-11-09T03:25:54.932Z,1015.35
2018-11-09T03:26:54.944Z,1015.36
2018-11-09T03:27:54.965Z,1015.34
2018-11-09T03:28:54.987Z,1015.31
2018-11-09T03:29:55.003Z,1015.29
2018-11-09T03:30:55.023Z,1015.29
2018-11-09T03:31:55.042Z,1015.29
2018-11-09T03:32:55.062Z,1015.27
2018-11-09T03:33:55.074Z,1015.24
2018-11-09T03:34:55.093Z,1015.21
2018-11-09T03:35:55.115Z,1015.22
2018-11-09T03:36:55.135Z,1015.13
2018-11-09T03:37:55.151Z,1015.12
2018-11-09T03:38:55.166Z,1015.09
2018-11-09T03:39:55.188Z,1015.09
2018-11-09T03:41:55.224Z,1015
2018-11-09T03:42:55.243Z,1014.99
2018-11-09T03:43:55.258Z,1015
2018-11-09T03:44:55.276Z,1014.98
2018-11-09T03:45:55.294Z,1015.01
2018-11-09T03:46:55.317Z,1015.02
2018-11-09T03:47:55.335Z,1015
2018-11-09T03:48:55.351Z,1014.99
2018-11-09T03:49:55.371Z,1014.98
2018-11-09T03:50:55.385Z,1014.96
2018-11-09T03:51:55.407Z,1014.99
2018-11-09T03:52:55.421Z,1014.95
2018-11-09T03:53:55.444Z,1014.96
2018-11-09T03:54:55.460Z,1014.92
2018-11-09T03:55:55.475Z,1014.98
2018-11-09T03:57:55.517Z,1014.92
2018-11-09T03:58:55.530Z,1014.9
2018-11-09T03:59:55.552Z,1014.93
2018-11-09T04:00:55.571Z,1015
2018-11-09T04:01:55.591Z,1014.97
2018-11-09T04:02:55.704Z,1014.96
2018-11-09T04:03:55.626Z,1014.97
2018-11-09T04:04:55.778Z,1014.91
2018-11-09T04:05:55.663Z,1014.92
2018-11-09T04:06:55.677Z,1014.89
2018-11-09T04:07:55.693Z,1014.91
2018-11-09T04:08:55.717Z,1014.89
2018-11-09T04:09:55.732Z,1014.86
2018-11-09T04:10:55.754Z,1014.9
2018-11-09T04:12:55.791Z,1014.8
2018-11-09T04:13:55.803Z,1014.8
2018-11-09T04:14:55.823Z,1014.79
2018-11-09T04:15:55.845Z,1014.77
2018-11-09T04:16:55.859Z,1014.77
2018-11-09T04:17:55.881Z,1014.75
2018-11-09T04:18:55.895Z,1014.77
2018-11-09T04:19:55.921Z,1014.75
2018-11-09T04:20:55.931Z,1014.78
2018-11-09T04:21:55.954Z,1014.73
2018-11-09T04:22:55.970Z,1014.75
2018-11-09T04:23:55.986Z,1014.74
2018-11-09T04:24:56.004Z,1014.73
2018-11-09T04:25:56.026Z,1014.69
2018-11-09T04:26:56.040Z,1014.68
2018-11-09T04:27:56.063Z,1014.7
2018-11-09T04:28:56.185Z,1014.69
2018-11-09T04:29:56.099Z,1014.73
2018-11-09T04:30:56.112Z,1014.76
2018-11-09T04:31:56.131Z,1014.75
2018-11-09T04:32:56.154Z,1014.79
2018-11-09T04:33:56.172Z,1014.78
2018-11-09T04:34:56.191Z,1014.8
2018-11-09T04:35:56.203Z,1014.8
2018-11-09T04:36:56.227Z,1014.8
2018-11-09T04:37:56.240Z,1014.84
2018-11-09T04:38:56.258Z,1014.82
2018-11-09T04:39:56.275Z,1014.82
2018-11-09T04:40:56.298Z,1014.82
2018-11-09T04:41:56.367Z,1014.79
2018-11-09T04:42:56.330Z,1014.79
2018-11-09T04:44:56.367Z,1014.83
2018-11-09T04:45:56.389Z,1014.87
2018-11-09T04:46:56.403Z,1014.83
2018-11-09T04:47:56.425Z,1014.82
2018-11-09T04:48:56.440Z,1014.87
2018-11-09T04:49:56.462Z,1014.84
2018-11-09T04:50:56.475Z,1014.87
2018-11-09T04:51:56.505Z,1014.82
2018-11-09T04:52:56.511Z,1014.9
2018-11-09T04:53:56.533Z,1014.85
2018-11-09T04:54:56.645Z,1014.84
2018-11-09T04:55:56.566Z,1014.83
2018-11-09T04:56:56.586Z,1014.8
2018-11-09T04:57:56.606Z,1014.85
2018-11-09T04:58:56.626Z,1014.85
2018-11-09T05:00:56.662Z,1014.84
2018-11-09T05:01:56.674Z,1014.86
2018-11-09T05:02:56.697Z,1014.79
2018-11-09T05:03:56.811Z,1014.78
2018-11-09T05:04:56.733Z,1014.78
2018-11-09T05:05:56.754Z,1014.74
2018-11-09T05:06:56.769Z,1014.77
2018-11-09T05:07:56.791Z,1014.76
2018-11-09T05:08:56.801Z,1014.78
2018-11-09T05:09:56.827Z,1014.78
2018-11-09T05:10:56.844Z,1014.77
2018-11-09T05:11:56.861Z,1014.79
2018-11-09T05:12:56.877Z,1014.75
2018-11-09T05:13:56.896Z,1014.77
2018-11-09T05:14:56.915Z,1014.73
2018-11-09T05:16:56.952Z,1014.72
2018-11-09T05:17:56.965Z,1014.71
2018-11-09T05:18:56.988Z,1014.7
2018-11-09T05:19:57.006Z,1014.66
2018-11-09T05:20:57.027Z,1014.73
2018-11-09T05:21:57.042Z,1014.74
2018-11-09T05:22:57.055Z,1014.74
2018-11-09T05:23:57.077Z,1014.72
2018-11-09T05:24:57.091Z,1014.76
2018-11-09T05:25:57.113Z,1014.78
2018-11-09T05:26:57.128Z,1014.72
2018-11-09T05:27:57.150Z,1014.74
2018-11-09T05:28:57.164Z,1014.71
2018-11-09T05:29:57.300Z,1014.73
2018-11-09T05:30:57.204Z,1014.75
2018-11-09T05:32:57.242Z,1014.74
2018-11-09T05:33:57.255Z,1014.73
2018-11-09T05:34:57.272Z,1014.74
2018-11-09T05:35:57.385Z,1014.73
2018-11-09T05:36:57.314Z,1014.71
2018-11-09T05:37:57.325Z,1014.73
2018-11-09T05:38:57.349Z,1014.7
2018-11-09T05:39:57.368Z,1014.7
2018-11-09T05:40:57.381Z,1014.68
2018-11-09T05:41:57.404Z,1014.71
2018-11-09T05:42:57.423Z,1014.63
2018-11-09T05:43:57.436Z,1014.68
2018-11-09T05:44:57.459Z,1014.63
2018-11-09T05:45:57.472Z,1014.62
2018-11-09T05:47:57.510Z,1014.63
2018-11-09T05:48:57.532Z,1014.63
2018-11-09T05:49:57.550Z,1014.66
2018-11-09T05:50:57.570Z,1014.65
2018-11-09T05:51:57.581Z,1014.64
2018-11-09T05:52:57.599Z,1014.59
2018-11-09T05:53:57.629Z,1014.61
2018-11-09T05:54:57.640Z,1014.59
2018-11-09T05:55:57.658Z,1014.6
2018-11-09T05:56:57.671Z,1014.61
2018-11-09T05:57:57.696Z,1014.64
2018-11-09T05:58:57.713Z,1014.65
2018-11-09T05:59:57.731Z,1014.69
2018-11-09T06:00:57.746Z,1014.71
2018-11-09T06:01:57.770Z,1014.71
2018-11-09T06:02:57.786Z,1014.69
2018-11-09T06:03:57.799Z,1014.65
2018-11-09T06:04:57.822Z,1014.72
2018-11-09T06:05:57.836Z,1014.66
2018-11-09T06:06:57.857Z,1014.62
2018-11-09T06:07:57.873Z,1014.61
2018-11-09T06:08:57.893Z,1014.59
2018-11-09T06:09:58.056Z,1014.56
2018-11-09T06:10:57.926Z,1014.53
2018-11-09T06:11:57.948Z,1014.49
2018-11-09T06:12:57.966Z,1014.47
2018-11-09T06:13:57.981Z,1014.51
2018-11-09T06:14:58.006Z,1014.54
2018-11-09T06:15:58.018Z,1014.51
2018-11-09T06:16:58.039Z,1014.55
2018-11-09T06:17:58.058Z,1014.59
2018-11-09T06:19:58.093Z,1014.58
2018-11-09T06:20:58.112Z,1014.56
2018-11-09T06:21:58.126Z,1014.54
2018-11-09T06:22:58.142Z,1014.56
2018-11-09T06:23:58.166Z,1014.53
2018-11-09T06:24:58.180Z,1014.57
2018-11-09T06:25:58.201Z,1014.61
2018-11-09T06:26:58.215Z,1014.58
2018-11-09T06:27:58.238Z,1014.6
2018-11-09T06:28:58.251Z,1014.62
2018-11-09T06:29:58.269Z,1014.57
2018-11-09T06:30:58.289Z,1014.6
2018-11-09T06:31:58.311Z,1014.62
2018-11-09T06:32:58.327Z,1014.6
2018-11-09T06:33:58.342Z,1014.6
2018-11-09T06:35:58.378Z,1014.63
2018-11-09T06:36:58.397Z,1014.63
2018-11-09T06:37:58.528Z,1014.6
2018-11-09T06:38:58.434Z,1014.55
2018-11-09T06:39:58.450Z,1014.58
2018-11-09T06:40:58.473Z,1014.58
2018-11-09T06:41:58.487Z,1014.59
2018-11-09T06:42:58.509Z,1014.57
2018-11-09T06:43:58.523Z,1014.61
2018-11-09T06:44:58.572Z,1014.6
2018-11-09T06:45:58.606Z,1014.66
2018-11-09T06:46:58.581Z,1014.65
2018-11-09T06:47:58.601Z,1014.68
2018-11-09T06:48:58.618Z,1014.72
2018-11-09T06:49:58.636Z,1014.71
2018-11-09T06:51:58.683Z,1014.76
2018-11-09T06:52:58.692Z,1014.79
2018-11-09T06:53:58.705Z,1014.83
2018-11-09T06:54:58.723Z,1014.84
2018-11-09T06:55:58.744Z,1014.87
2018-11-09T06:56:58.789Z,1014.91
2018-11-09T06:57:58.929Z,1014.92
2018-11-09T06:58:58.799Z,1014.96
2018-11-09T06:59:58.812Z,1014.96
2018-11-09T07:00:58.835Z,1014.95
2018-11-09T07:01:58.851Z,1014.94
2018-11-09T07:02:58.871Z,1014.94
2018-11-09T07:03:58.905Z,1014.92
2018-11-09T07:04:58.908Z,1014.91
2018-11-09T07:05:59.022Z,1014.9
2018-11-09T07:07:58.962Z,1014.88
2018-11-09T07:08:58.982Z,1014.92
2018-11-09T07:09:58.995Z,1014.93
2018-11-09T07:10:59.013Z,1014.97
2018-11-09T07:11:59.066Z,1014.93
2018-11-09T07:12:59.049Z,1014.98
2018-11-09T07:13:59.075Z,1015.01
2018-11-09T07:14:59.090Z,1015.02
2018-11-09T07:15:59.109Z,1015.05
2018-11-09T07:16:59.124Z,1015.07
2018-11-09T07:17:59.141Z,1015.08
2018-11-09T07:18:59.163Z,1015.08
2018-11-09T07:19:59.182Z,1015.02
2018-11-09T07:20:59.203Z,1015.02
2018-11-09T07:22:59.238Z,1015.02
2018-11-09T07:23:59.251Z,1015.01
2018-11-09T07:24:59.274Z,1014.97
2018-11-09T07:25:59.288Z,1014.95
2018-11-09T07:26:59.311Z,1014.9
2018-11-09T07:27:59.328Z,1014.91
2018-11-09T07:28:59.347Z,1014.89
2018-11-09T07:29:59.362Z,1014.87
2018-11-09T07:30:59.398Z,1014.9
2018-11-09T07:31:59.398Z,1014.88
2018-11-09T07:32:59.420Z,1014.87
2018-11-09T07:33:59.436Z,1014.87
2018-11-09T07:34:59.460Z,1014.89
2018-11-09T07:35:59.471Z,1014.86
2018-11-09T07:36:59.688Z,1014.89
2018-11-09T07:37:59.599Z,1014.95
2018-11-09T07:38:59.531Z,1014.91
2018-11-09T07:39:59.545Z,1014.9
2018-11-09T07:40:59.563Z,1014.95
2018-11-09T07:41:59.585Z,1014.99
2018-11-09T07:42:59.599Z,1014.97
2018-11-09T07:43:59.623Z,1014.98
2018-11-09T07:44:59.696Z,1014.92
2018-11-09T07:45:59.654Z,1014.95
2018-11-09T07:46:59.672Z,1014.94
2018-11-09T07:47:59.692Z,1014.94
2018-11-09T07:48:59.715Z,1014.88
2018-11-09T07:49:59.728Z,1014.83
2018-11-09T07:50:59.752Z,1014.8
2018-11-09T07:51:59.788Z,1014.78
2018-11-09T07:52:59.798Z,1014.78
2018-11-09T07:54:59.819Z,1014.74
2018-11-09T07:55:59.846Z,1014.77
2018-11-09T07:56:59.875Z,1014.78
2018-11-09T07:57:59.875Z,1014.77
2018-11-09T07:58:59.899Z,1014.74
2018-11-09T07:59:59.913Z,1014.79
2018-11-09T08:00:59.934Z,1014.82
2018-11-09T08:01:59.950Z,1014.78
2018-11-09T08:03:00.161Z,1014.78
2018-11-09T08:04:00.150Z,1014.82
2018-11-09T08:05:00.009Z,1014.81
2018-11-09T08:06:00.036Z,1014.76
2018-11-09T08:07:00.145Z,1014.73
2018-11-09T08:08:00.064Z,1014.76
2018-11-09T08:09:00.118Z,1014.77
2018-11-09T08:11:00.116Z,1014.79
2018-11-09T08:12:00.137Z,1014.74
2018-11-09T08:13:00.152Z,1014.74
2018-11-09T08:14:00.175Z,1014.78
2018-11-09T08:15:00.193Z,1014.76
2018-11-09T08:16:00.235Z,1014.77
2018-11-09T08:17:00.239Z,1014.75
2018-11-09T08:18:00.244Z,1014.74
2018-11-09T08:19:00.266Z,1014.73
2018-11-09T08:20:00.280Z,1014.7
2018-11-09T08:21:00.304Z,1014.71
2018-11-09T08:22:00.323Z,1014.7
2018-11-09T08:23:00.336Z,1014.65
2018-11-09T08:24:00.367Z,1014.65
2018-11-09T08:25:00.378Z,1014.64
2018-11-09T08:27:00.413Z,1014.67
2018-11-09T08:28:00.428Z,1014.63
2018-11-09T08:29:00.492Z,1014.63
2018-11-09T08:30:00.465Z,1014.63
2018-11-09T08:31:00.488Z,1014.65
2018-11-09T08:32:00.509Z,1014.66
2018-11-09T08:33:00.521Z,1014.67
2018-11-09T08:34:00.578Z,1014.63
2018-11-09T08:35:00.557Z,1014.63
2018-11-09T08:36:00.580Z,1014.65
2018-11-09T08:37:00.593Z,1014.63
2018-11-09T08:38:00.619Z,1014.66
2018-11-09T08:39:00.638Z,1014.61
2018-11-09T08:40:00.655Z,1014.62
2018-11-09T08:41:00.668Z,1014.61
2018-11-09T08:43:00.712Z,1014.65
2018-11-09T08:44:00.746Z,1014.67
2018-11-09T08:45:00.747Z,1014.68
2018-11-09T08:46:00.762Z,1014.72
2018-11-09T08:47:00.784Z,1014.72
2018-11-09T08:48:00.798Z,1014.7
2018-11-09T08:49:00.898Z,1014.72
2018-11-09T08:50:00.934Z,1014.7
2018-11-09T08:51:00.858Z,1014.7
2018-11-09T08:52:00.871Z,1014.69
2018-11-09T08:53:00.894Z,1014.73
2018-11-09T08:54:00.914Z,1014.72
2018-11-09T08:55:01.201Z,1014.68
2018-11-09T08:56:00.948Z,1014.64
2018-11-09T08:58:01.033Z,1014.66
2018-11-09T08:59:01.007Z,1014.63
2018-11-09T09:00:01.022Z,1014.58
2018-11-09T09:01:01.046Z,1014.6
2018-11-09T09:02:01.065Z,1014.58
2018-11-09T09:03:01.156Z,1014.51
2018-11-09T09:04:01.102Z,1014.53
2018-11-09T09:05:01.121Z,1014.49
2018-11-09T09:06:01.134Z,1014.52
2018-11-09T09:07:01.153Z,1014.52
2018-11-09T09:08:01.172Z,1014.53
2018-11-09T09:09:01.268Z,1014.52
2018-11-09T09:10:01.210Z,1014.52
2018-11-09T09:11:01.232Z,1014.56
2018-11-09T09:12:01.248Z,1014.57
2018-11-09T09:13:01.270Z,1014.57
2018-11-09T09:14:01.285Z,1014.57
2018-11-09T09:15:01.303Z,1014.5
2018-11-09T09:16:01.328Z,1014.48
2018-11-09T09:17:01.350Z,1014.52
2018-11-09T09:18:01.361Z,1014.53
2018-11-09T09:19:01.388Z,1014.57
2018-11-09T09:20:01.407Z,1014.54
2018-11-09T09:21:01.484Z,1014.52
2018-11-09T09:22:01.437Z,1014.57
2018-11-09T09:23:01.460Z,1014.53
2018-11-09T09:24:01.475Z,1014.53
2018-11-09T09:25:01.530Z,1014.52
2018-11-09T09:26:01.517Z,1014.52
2018-11-09T09:27:01.531Z,1014.47
2018-11-09T09:28:01.558Z,1014.41
2018-11-09T09:30:01.654Z,1014.42
2018-11-09T09:31:01.608Z,1014.39
2018-11-09T09:32:01.628Z,1014.38
2018-11-09T09:33:01.647Z,1014.41
2018-11-09T09:34:01.670Z,1014.4
2018-11-09T09:35:01.688Z,1014.4
2018-11-09T09:36:01.810Z,1014.36
2018-11-09T09:37:01.721Z,1014.36
2018-11-09T09:38:01.742Z,1014.35
2018-11-09T09:39:01.767Z,1014.35
2018-11-09T09:40:01.779Z,1014.36
2018-11-09T09:41:01.802Z,1014.4
2018-11-09T09:42:01.824Z,1014.42
2018-11-09T09:43:01.840Z,1014.4
2018-11-09T09:44:01.855Z,1014.4
2018-11-09T09:46:01.934Z,1014.36
2018-11-09T09:47:01.912Z,1014.37
2018-11-09T09:48:01.932Z,1014.35
2018-11-09T09:49:01.956Z,1014.33
2018-11-09T09:50:01.971Z,1014.26
2018-11-09T09:51:01.994Z,1014.21
2018-11-09T09:52:02.113Z,1014.22
2018-11-09T09:53:02.033Z,1014.15
2018-11-09T09:54:02.048Z,1014.11
2018-11-09T09:55:02.369Z,1014.09
2018-11-09T09:56:02.404Z,1014.03
2018-11-09T09:57:02.729Z,1014.04
2018-11-09T09:58:02.131Z,1014.02
2018-11-09T09:59:02.147Z,1014.03
2018-11-09T10:00:02.270Z,1014.02
2018-11-09T10:02:02.206Z,1014
2018-11-09T10:03:02.237Z,1013.99
2018-11-09T10:04:02.278Z,1013.97
2018-11-09T10:05:02.265Z,1014.01
2018-11-09T10:06:02.281Z,1013.96
2018-11-09T10:07:02.305Z,1013.93
2018-11-09T10:08:02.320Z,1013.95
2018-11-09T10:09:02.415Z,1013.89
2018-11-09T10:10:02.359Z,1013.92
2018-11-09T10:11:02.382Z,1013.88
2018-11-09T10:12:02.398Z,1013.88
2018-11-09T10:13:02.551Z,1013.89
2018-11-09T10:14:02.442Z,1013.85
2018-11-09T10:15:02.459Z,1013.85
2018-11-09T10:16:02.526Z,1013.87
2018-11-09T10:18:02.514Z,1013.9
2018-11-09T10:19:02.631Z,1013.94
2018-11-09T10:20:02.606Z,1013.86
2018-11-09T10:21:02.571Z,1013.91
2018-11-09T10:22:02.595Z,1013.88
2018-11-09T10:23:02.614Z,1013.89
2018-11-09T10:24:02.635Z,1013.84
2018-11-09T10:25:02.650Z,1013.83
2018-11-09T10:26:02.722Z,1013.81
2018-11-09T10:27:02.693Z,1013.81
2018-11-09T10:28:02.708Z,1013.83
2018-11-09T10:29:02.733Z,1013.8
2018-11-09T10:30:02.747Z,1013.8
2018-11-09T10:31:02.772Z,1013.81
2018-11-09T10:33:02.824Z,1013.76
2018-11-09T10:34:02.831Z,1013.75
2018-11-09T10:35:02.845Z,1013.76
2018-11-09T10:36:02.869Z,1013.72
2018-11-09T10:37:02.886Z,1013.75
2018-11-09T10:38:02.909Z,1013.75
2018-11-09T10:39:02.924Z,1013.66
2018-11-09T10:40:02.949Z,1013.71
2018-11-09T10:41:02.967Z,1013.66
2018-11-09T10:42:02.982Z,1013.67
2018-11-09T10:43:03.003Z,1013.65
2018-11-09T10:44:03.027Z,1013.67
2018-11-09T10:45:03.045Z,1013.66
2018-11-09T10:46:03.066Z,1013.62
2018-11-09T10:47:03.081Z,1013.65
2018-11-09T10:48:03.107Z,1013.63
2018-11-09T10:49:03.119Z,1013.62
2018-11-09T10:50:03.140Z,1013.58
2018-11-09T10:51:03.161Z,1013.6
2018-11-09T10:52:03.183Z,1013.55
2018-11-09T10:53:03.201Z,1013.51
2018-11-09T10:54:03.228Z,1013.54
2018-11-09T10:55:03.280Z,1013.52
2018-11-09T10:56:03.463Z,1013.49
2018-11-09T10:57:03.413Z,1013.47
2018-11-09T10:58:03.300Z,1013.44
2018-11-09T10:59:03.322Z,1013.42
2018-11-09T11:00:03.335Z,1013.42
2018-11-09T11:01:03.360Z,1013.4
2018-11-09T11:02:03.377Z,1013.38
2018-11-09T11:03:03.400Z,1013.36
2018-11-09T11:05:03.439Z,1013.3
2018-11-09T11:06:03.456Z,1013.31
2018-11-09T11:07:03.520Z,1013.34
2018-11-09T11:08:03.493Z,1013.31
2018-11-09T11:09:03.519Z,1013.36
2018-11-09T11:10:03.533Z,1013.33
2018-11-09T11:11:03.556Z,1013.28
2018-11-09T11:12:03.601Z,1013.29
2018-11-09T11:13:03.595Z,1013.27
2018-11-09T11:14:03.610Z,1013.3
2018-11-09T11:15:03.637Z,1013.25
2018-11-09T11:16:03.650Z,1013.23
2018-11-09T11:17:03.674Z,1013.27
2018-11-09T11:18:03.726Z,1013.21
2018-11-09T11:19:03.719Z,1013.18
2018-11-09T11:21:03.749Z,1013.16
2018-11-09T11:22:03.772Z,1013.14
2018-11-09T11:23:03.788Z,1013.17
2018-11-09T11:24:03.807Z,1013.16
2018-11-09T11:25:03.831Z,1013.2
2018-11-09T11:26:03.855Z,1013.19
2018-11-09T11:27:03.993Z,1013.16
2018-11-09T11:28:03.893Z,1013.18
2018-11-09T11:29:03.910Z,1013.15
2018-11-09T11:30:03.930Z,1013.15
2018-11-09T11:31:03.946Z,1013.16
2018-11-09T11:32:03.966Z,1013.16
2018-11-09T11:33:04.091Z,1013.2
2018-11-09T11:34:04.007Z,1013.13
2018-11-09T11:35:04.030Z,1013.13
2018-11-09T11:37:04.069Z,1013.06
2018-11-09T11:38:04.146Z,1013.05
2018-11-09T11:39:04.109Z,1013.04
2018-11-09T11:40:04.123Z,1012.99
2018-11-09T11:41:04.143Z,1013.01
2018-11-09T11:42:04.290Z,1012.98
2018-11-09T11:43:04.188Z,1012.97
2018-11-09T11:44:04.207Z,1013.02
2018-11-09T11:45:04.223Z,1012.96
2018-11-09T11:46:04.248Z,1012.95
2018-11-09T11:47:04.261Z,1012.98
2018-11-09T11:48:04.282Z,1012.99
2018-11-09T11:49:04.307Z,1013
2018-11-09T11:50:04.322Z,1013.01
2018-11-09T11:51:04.346Z,1013.04
2018-11-09T11:53:04.388Z,1012.98
2018-11-09T11:54:04.402Z,1013
2018-11-09T11:55:04.428Z,1012.95
2018-11-09T11:56:04.446Z,1012.89
2018-11-09T11:57:04.465Z,1012.91
2018-11-09T11:58:04.485Z,1012.89
2018-11-09T11:59:04.501Z,1012.88
2018-11-09T12:00:04.525Z,1012.84
2018-11-09T12:01:04.596Z,1012.86
2018-11-09T12:02:04.569Z,1012.86
2018-11-09T12:03:04.588Z,1012.91
2018-11-09T12:04:04.601Z,1012.93
2018-11-09T12:05:04.672Z,1012.94
2018-11-09T12:06:04.645Z,1012.94
2018-11-09T12:08:04.686Z,1012.92
2018-11-09T12:09:04.704Z,1012.9
2018-11-09T12:10:04.720Z,1012.97
2018-11-09T12:11:04.740Z,1012.96
2018-11-09T12:12:04.896Z,1012.96
2018-11-09T12:13:05.194Z,1012.98
2018-11-09T12:14:04.800Z,1012.98
2018-11-09T12:15:04.827Z,1012.97
2018-11-09T12:16:04.842Z,1012.93
2018-11-09T12:17:04.858Z,1012.92
2018-11-09T12:18:04.884Z,1012.96
2018-11-09T12:19:04.898Z,1012.89
2018-11-09T12:20:04.917Z,1012.87
2018-11-09T12:21:04.939Z,1012.84
2018-11-09T12:22:04.958Z,1012.86
2018-11-09T12:23:04.981Z,1012.82
2018-11-09T12:24:04.996Z,1012.81
2018-11-09T12:25:05.020Z,1012.82
2018-11-09T12:26:05.036Z,1012.79
2018-11-09T12:27:05.058Z,1012.76
2018-11-09T12:28:05.076Z,1012.76
2018-11-09T12:29:05.144Z,1012.73
2018-11-09T12:30:05.114Z,1012.75
2018-11-09T12:31:05.138Z,1012.7
2018-11-09T12:32:05.154Z,1012.72
2018-11-09T12:33:05.185Z,1012.69
2018-11-09T12:34:05.197Z,1012.7
2018-11-09T12:35:05.216Z,1012.64
2018-11-09T12:36:05.232Z,1012.64
2018-11-09T12:37:05.346Z,1012.65
2018-11-09T12:38:05.718Z,1012.59
2018-11-09T12:40:05.315Z,1012.56
2018-11-09T12:41:05.339Z,1012.56
2018-11-09T12:42:05.350Z,1012.49
2018-11-09T12:43:05.374Z,1012.47
2018-11-09T12:44:05.395Z,1012.47
2018-11-09T12:45:05.409Z,1012.48
2018-11-09T12:46:05.595Z,1012.46
2018-11-09T12:47:05.449Z,1012.47
2018-11-09T12:48:05.551Z,1012.46
2018-11-09T12:49:05.491Z,1012.46